sensor_id;sensor_type;location;lat;lon;timestamp;temperature;humidity
13798;DHT22;6970;51.340;3.240;2022-11-20T00:01:13;4.20;99.90
13798;DHT22;6970;51.340;3.240;2022-11-20T00:03:41;4.20;99.90
13798;DHT22;6970;51.340;3.240;2022-11-20T00:06:11;4.10;99.90
13798;DHT22;6970;51.340;3.240;2022-11-20T00:08:38;4.10;99.90
13798;DHT22;6970;51.340;3.240;2022-11-20T00:11:07;4.10;99.90
13798;DHT22;6970;51.340;3.240;2022-11-20T00:13:41;4.10;99.90
13798;DHT22;6970;51.340;3.240;2022-11-20T00:16:11;4.10;99.90
13798;DHT22;6970;51.340;3.240;2022-11-20T00:18:38;4.10;99.90
13798;DHT22;6970;51.340;3.240;2022-11-20T00:21:07;4.10;99.90
13798;DHT22;6970;51.340;3.240;2022-11-20T00:23:36;4.10;99.90
13798;DHT22;6970;51.340;3.240;2022-11-20T00:26:06;4.00;99.90
13798;DHT22;6970;51.340;3.240;2022-11-20T00:28:35;4.00;99.90
13798;DHT22;6970;51.340;3.240;2022-11-20T00:31:13;4.00;99.90
13798;DHT22;6970;51.340;3.240;2022-11-20T00:33:41;4.00;99.90
13798;DHT22;6970;51.340;3.240;2022-11-20T00:36:19;4.00;99.90
13798;DHT22;6970;51.340;3.240;2022-11-20T00:38:47;4.00;99.90
13798;DHT22;6970;51.340;3.240;2022-11-20T00:41:15;4.00;99.90
13798;DHT22;6970;51.340;3.240;2022-11-20T00:43:42;4.00;99.90
13798;DHT22;6970;51.340;3.240;2022-11-20T00:46:13;4.00;99.90
13798;DHT22;6970;51.340;3.240;2022-11-20T00:48:40;4.10;99.90
13798;DHT22;6970;51.340;3.240;2022-11-20T00:51:08;4.10;99.90
13798;DHT22;6970;51.340;3.240;2022-11-20T00:53:35;4.10;99.90
13798;DHT22;6970;51.340;3.240;2022-11-20T00:56:07;4.10;99.90
13798;DHT22;6970;51.340;3.240;2022-11-20T00:58:35;4.10;99.90
13798;DHT22;6970;51.340;3.240;2022-11-20T01:01:31;4.10;99.90
13798;DHT22;6970;51.340;3.240;2022-11-20T01:03:59;4.10;99.90
13798;DHT22;6970;51.340;3.240;2022-11-20T01:06:33;4.10;99.90
13798;DHT22;6970;51.340;3.240;2022-11-20T01:09:04;4.10;99.90
13798;DHT22;6970;51.340;3.240;2022-11-20T01:11:34;4.10;99.90
13798;DHT22;6970;51.340;3.240;2022-11-20T01:14:03;4.10;99.90
13798;DHT22;6970;51.340;3.240;2022-11-20T01:16:36;4.10;99.90
13798;DHT22;6970;51.340;3.240;2022-11-20T01:19:06;4.10;99.90
13798;DHT22;6970;51.340;3.240;2022-11-20T01:21:35;4.10;99.90
13798;DHT22;6970;51.340;3.240;2022-11-20T01:24:04;4.10;99.90
13798;DHT22;6970;51.340;3.240;2022-11-20T01:26:33;4.20;99.90
13798;DHT22;6970;51.340;3.240;2022-11-20T01:29:02;4.20;99.90
13798;DHT22;6970;51.340;3.240;2022-11-20T01:31:31;4.30;99.90
13798;DHT22;6970;51.340;3.240;2022-11-20T01:34:04;4.30;99.90
13798;DHT22;6970;51.340;3.240;2022-11-20T01:36:32;4.30;99.90
13798;DHT22;6970;51.340;3.240;2022-11-20T01:39:02;4.30;99.90
13798;DHT22;6970;51.340;3.240;2022-11-20T01:41:30;4.40;99.90
13798;DHT22;6970;51.340;3.240;2022-11-20T01:44:20;4.40;99.90
13798;DHT22;6970;51.340;3.240;2022-11-20T01:46:59;4.40;99.90
13798;DHT22;6970;51.340;3.240;2022-11-20T01:49:37;4.40;99.90
13798;DHT22;6970;51.340;3.240;2022-11-20T01:52:30;4.40;99.90
13798;DHT22;6970;51.340;3.240;2022-11-20T01:55:06;4.40;99.90
13798;DHT22;6970;51.340;3.240;2022-11-20T01:57:34;4.40;99.90
13798;DHT22;6970;51.340;3.240;2022-11-20T02:00:12;4.40;99.90
13798;DHT22;6970;51.340;3.240;2022-11-20T02:02:42;4.40;99.90
13798;DHT22;6970;51.340;3.240;2022-11-20T02:05:18;4.40;99.90
13798;DHT22;6970;51.340;3.240;2022-11-20T02:07:48;4.40;99.90
13798;DHT22;6970;51.340;3.240;2022-11-20T02:10:15;4.40;99.90
13798;DHT22;6970;51.340;3.240;2022-11-20T02:12:42;4.40;99.90
13798;DHT22;6970;51.340;3.240;2022-11-20T02:15:28;4.40;99.90
13798;DHT22;6970;51.340;3.240;2022-11-20T02:17:56;4.40;99.90
13798;DHT22;6970;51.340;3.240;2022-11-20T02:20:23;4.40;99.90
13798;DHT22;6970;51.340;3.240;2022-11-20T02:25:21;4.50;99.90
13798;DHT22;6970;51.340;3.240;2022-11-20T02:27:51;4.50;99.90
13798;DHT22;6970;51.340;3.240;2022-11-20T02:30:21;4.40;99.90
13798;DHT22;6970;51.340;3.240;2022-11-20T02:32:48;4.40;99.90
13798;DHT22;6970;51.340;3.240;2022-11-20T02:37:48;4.40;99.90
13798;DHT22;6970;51.340;3.240;2022-11-20T02:40:15;4.40;99.90
13798;DHT22;6970;51.340;3.240;2022-11-20T02:42:42;4.40;99.90
13798;DHT22;6970;51.340;3.240;2022-11-20T02:45:09;4.40;99.90
13798;DHT22;6970;51.340;3.240;2022-11-20T02:47:36;4.40;99.90
13798;DHT22;6970;51.340;3.240;2022-11-20T02:50:04;4.40;99.90
13798;DHT22;6970;51.340;3.240;2022-11-20T02:52:31;4.40;99.90
13798;DHT22;6970;51.340;3.240;2022-11-20T02:55:00;4.40;99.90
13798;DHT22;6970;51.340;3.240;2022-11-20T02:57:27;4.40;99.90
13798;DHT22;6970;51.340;3.240;2022-11-20T02:59:54;4.40;99.90
13798;DHT22;6970;51.340;3.240;2022-11-20T03:02:21;4.40;99.90
13798;DHT22;6970;51.340;3.240;2022-11-20T03:04:48;4.40;99.90
13798;DHT22;6970;51.340;3.240;2022-11-20T03:07:15;4.40;99.90
13798;DHT22;6970;51.340;3.240;2022-11-20T03:09:42;4.50;99.90
13798;DHT22;6970;51.340;3.240;2022-11-20T03:12:09;4.50;99.90
13798;DHT22;6970;51.340;3.240;2022-11-20T03:14:36;4.50;99.90
13798;DHT22;6970;51.340;3.240;2022-11-20T03:17:03;4.50;99.90
13798;DHT22;6970;51.340;3.240;2022-11-20T03:19:29;4.50;99.90
13798;DHT22;6970;51.340;3.240;2022-11-20T03:21:58;4.50;99.90
13798;DHT22;6970;51.340;3.240;2022-11-20T03:24:24;4.50;99.90
13798;DHT22;6970;51.340;3.240;2022-11-20T03:26:54;4.50;99.90
13798;DHT22;6970;51.340;3.240;2022-11-20T03:29:21;4.50;99.90
13798;DHT22;6970;51.340;3.240;2022-11-20T03:31:49;4.50;99.90
13798;DHT22;6970;51.340;3.240;2022-11-20T03:34:15;4.50;99.90
13798;DHT22;6970;51.340;3.240;2022-11-20T03:36:43;4.50;99.90
13798;DHT22;6970;51.340;3.240;2022-11-20T03:39:10;4.40;99.90
13798;DHT22;6970;51.340;3.240;2022-11-20T03:41:39;4.40;99.90
13798;DHT22;6970;51.340;3.240;2022-11-20T03:44:08;4.40;99.90
13798;DHT22;6970;51.340;3.240;2022-11-20T03:46:35;4.40;99.90
13798;DHT22;6970;51.340;3.240;2022-11-20T03:49:03;4.50;99.90
13798;DHT22;6970;51.340;3.240;2022-11-20T03:51:32;4.50;99.90
13798;DHT22;6970;51.340;3.240;2022-11-20T03:54:02;4.50;99.90
13798;DHT22;6970;51.340;3.240;2022-11-20T03:56:31;4.50;99.90
13798;DHT22;6970;51.340;3.240;2022-11-20T03:58:58;4.50;99.90
13798;DHT22;6970;51.340;3.240;2022-11-20T04:01:28;4.50;99.90
13798;DHT22;6970;51.340;3.240;2022-11-20T04:03:56;4.50;99.90
13798;DHT22;6970;51.340;3.240;2022-11-20T04:06:25;4.50;99.90
13798;DHT22;6970;51.340;3.240;2022-11-20T04:08:54;4.50;99.90
13798;DHT22;6970;51.340;3.240;2022-11-20T04:11:24;4.50;99.90
13798;DHT22;6970;51.340;3.240;2022-11-20T04:13:53;4.50;99.90
13798;DHT22;6970;51.340;3.240;2022-11-20T04:16:21;4.50;99.90
13798;DHT22;6970;51.340;3.240;2022-11-20T04:18:55;4.40;99.90
13798;DHT22;6970;51.340;3.240;2022-11-20T04:21:23;4.40;99.90
13798;DHT22;6970;51.340;3.240;2022-11-20T04:23:52;4.50;99.90
13798;DHT22;6970;51.340;3.240;2022-11-20T04:26:27;4.50;99.90
13798;DHT22;6970;51.340;3.240;2022-11-20T04:28:54;4.40;99.90
13798;DHT22;6970;51.340;3.240;2022-11-20T04:31:26;4.40;99.90
13798;DHT22;6970;51.340;3.240;2022-11-20T04:33:54;4.40;99.90
13798;DHT22;6970;51.340;3.240;2022-11-20T04:36:23;4.30;99.90
13798;DHT22;6970;51.340;3.240;2022-11-20T04:38:52;4.30;99.90
13798;DHT22;6970;51.340;3.240;2022-11-20T04:41:27;4.30;99.90
13798;DHT22;6970;51.340;3.240;2022-11-20T04:43:57;4.20;99.90
13798;DHT22;6970;51.340;3.240;2022-11-20T04:46:27;4.20;99.90
13798;DHT22;6970;51.340;3.240;2022-11-20T04:48:54;4.20;99.90
13798;DHT22;6970;51.340;3.240;2022-11-20T04:51:22;4.10;99.90
13798;DHT22;6970;51.340;3.240;2022-11-20T04:53:48;4.10;99.90
13798;DHT22;6970;51.340;3.240;2022-11-20T04:56:15;4.10;99.90
13798;DHT22;6970;51.340;3.240;2022-11-20T04:58:43;4.10;99.90
13798;DHT22;6970;51.340;3.240;2022-11-20T05:01:12;4.10;99.90
13798;DHT22;6970;51.340;3.240;2022-11-20T05:03:40;4.10;99.90
13798;DHT22;6970;51.340;3.240;2022-11-20T05:06:10;4.10;99.90
13798;DHT22;6970;51.340;3.240;2022-11-20T05:08:40;4.10;99.90
13798;DHT22;6970;51.340;3.240;2022-11-20T05:11:13;4.10;99.90
13798;DHT22;6970;51.340;3.240;2022-11-20T05:13:41;4.10;99.90
13798;DHT22;6970;51.340;3.240;2022-11-20T05:16:10;4.10;99.90
13798;DHT22;6970;51.340;3.240;2022-11-20T05:18:38;4.10;99.90
13798;DHT22;6970;51.340;3.240;2022-11-20T05:21:06;4.10;99.90
13798;DHT22;6970;51.340;3.240;2022-11-20T05:23:34;4.20;99.90
13798;DHT22;6970;51.340;3.240;2022-11-20T05:26:01;4.20;99.90
13798;DHT22;6970;51.340;3.240;2022-11-20T05:28:31;4.20;99.90
13798;DHT22;6970;51.340;3.240;2022-11-20T05:31:16;4.20;99.90
13798;DHT22;6970;51.340;3.240;2022-11-20T05:33:52;4.30;99.90
13798;DHT22;6970;51.340;3.240;2022-11-20T05:36:18;4.30;99.90
13798;DHT22;6970;51.340;3.240;2022-11-20T05:38:45;4.30;99.90
13798;DHT22;6970;51.340;3.240;2022-11-20T05:41:18;4.30;99.90
13798;DHT22;6970;51.340;3.240;2022-11-20T05:43:47;4.40;99.90
13798;DHT22;6970;51.340;3.240;2022-11-20T05:46:17;4.40;99.90
13798;DHT22;6970;51.340;3.240;2022-11-20T05:48:50;4.40;99.90
13798;DHT22;6970;51.340;3.240;2022-11-20T05:51:18;4.40;99.90
13798;DHT22;6970;51.340;3.240;2022-11-20T05:53:45;4.50;99.90
13798;DHT22;6970;51.340;3.240;2022-11-20T05:56:17;4.50;99.90
13798;DHT22;6970;51.340;3.240;2022-11-20T05:58:45;4.50;99.90
13798;DHT22;6970;51.340;3.240;2022-11-20T06:01:18;4.60;99.90
13798;DHT22;6970;51.340;3.240;2022-11-20T06:03:45;4.60;99.90
13798;DHT22;6970;51.340;3.240;2022-11-20T06:06:15;4.60;99.90
13798;DHT22;6970;51.340;3.240;2022-11-20T06:08:43;4.60;99.90
13798;DHT22;6970;51.340;3.240;2022-11-20T06:11:12;4.60;99.90
13798;DHT22;6970;51.340;3.240;2022-11-20T06:13:39;4.70;99.90
13798;DHT22;6970;51.340;3.240;2022-11-20T06:16:09;4.70;99.90
13798;DHT22;6970;51.340;3.240;2022-11-20T06:18:37;4.70;99.90
13798;DHT22;6970;51.340;3.240;2022-11-20T06:21:09;4.70;99.90
13798;DHT22;6970;51.340;3.240;2022-11-20T06:23:37;4.70;99.90
13798;DHT22;6970;51.340;3.240;2022-11-20T06:26:12;4.70;99.90
13798;DHT22;6970;51.340;3.240;2022-11-20T06:28:41;4.70;99.90
13798;DHT22;6970;51.340;3.240;2022-11-20T06:31:12;4.70;99.90
13798;DHT22;6970;51.340;3.240;2022-11-20T06:33:40;4.80;99.90
13798;DHT22;6970;51.340;3.240;2022-11-20T06:36:09;4.80;99.90
13798;DHT22;6970;51.340;3.240;2022-11-20T06:38:37;4.80;99.90
13798;DHT22;6970;51.340;3.240;2022-11-20T06:41:12;4.80;99.90
13798;DHT22;6970;51.340;3.240;2022-11-20T06:43:43;4.80;99.90
13798;DHT22;6970;51.340;3.240;2022-11-20T06:46:13;4.90;99.90
13798;DHT22;6970;51.340;3.240;2022-11-20T06:48:43;4.90;99.90
13798;DHT22;6970;51.340;3.240;2022-11-20T06:51:10;4.90;99.90
13798;DHT22;6970;51.340;3.240;2022-11-20T06:53:37;5.00;99.90
13798;DHT22;6970;51.340;3.240;2022-11-20T06:56:10;5.00;99.90
13798;DHT22;6970;51.340;3.240;2022-11-20T06:58:37;5.00;99.90
13798;DHT22;6970;51.340;3.240;2022-11-20T07:01:09;5.00;99.90
13798;DHT22;6970;51.340;3.240;2022-11-20T07:03:40;5.00;99.90
13798;DHT22;6970;51.340;3.240;2022-11-20T07:06:11;5.10;99.90
13798;DHT22;6970;51.340;3.240;2022-11-20T07:08:39;5.10;99.90
13798;DHT22;6970;51.340;3.240;2022-11-20T07:11:07;5.10;99.90
13798;DHT22;6970;51.340;3.240;2022-11-20T07:13:34;5.10;99.90
13798;DHT22;6970;51.340;3.240;2022-11-20T07:16:06;5.20;99.90
13798;DHT22;6970;51.340;3.240;2022-11-20T07:18:36;5.20;99.90
13798;DHT22;6970;51.340;3.240;2022-11-20T07:21:10;5.20;99.90
13798;DHT22;6970;51.340;3.240;2022-11-20T07:23:38;5.20;99.90
13798;DHT22;6970;51.340;3.240;2022-11-20T07:26:08;5.30;99.90
13798;DHT22;6970;51.340;3.240;2022-11-20T07:28:38;5.30;99.90
13798;DHT22;6970;51.340;3.240;2022-11-20T07:31:06;5.30;99.90
13798;DHT22;6970;51.340;3.240;2022-11-20T07:33:35;5.30;99.90
13798;DHT22;6970;51.340;3.240;2022-11-20T07:36:02;5.30;99.90
13798;DHT22;6970;51.340;3.240;2022-11-20T07:38:32;5.30;99.90
13798;DHT22;6970;51.340;3.240;2022-11-20T07:41:02;5.30;99.90
13798;DHT22;6970;51.340;3.240;2022-11-20T07:43:29;5.30;99.90
13798;DHT22;6970;51.340;3.240;2022-11-20T07:45:58;5.30;99.90
13798;DHT22;6970;51.340;3.240;2022-11-20T07:48:25;5.30;99.90
13798;DHT22;6970;51.340;3.240;2022-11-20T07:50:59;5.30;99.90
13798;DHT22;6970;51.340;3.240;2022-11-20T07:53:29;5.30;99.90
13798;DHT22;6970;51.340;3.240;2022-11-20T07:56:00;5.30;99.90
13798;DHT22;6970;51.340;3.240;2022-11-20T07:58:29;5.40;99.90
13798;DHT22;6970;51.340;3.240;2022-11-20T08:01:07;5.40;99.90
13798;DHT22;6970;51.340;3.240;2022-11-20T08:03:36;5.40;99.90
13798;DHT22;6970;51.340;3.240;2022-11-20T08:06:12;5.40;99.90
13798;DHT22;6970;51.340;3.240;2022-11-20T08:08:39;5.40;99.90
13798;DHT22;6970;51.340;3.240;2022-11-20T08:11:11;5.40;99.90
13798;DHT22;6970;51.340;3.240;2022-11-20T08:13:58;5.40;99.90
13798;DHT22;6970;51.340;3.240;2022-11-20T08:16:45;5.40;99.90
13798;DHT22;6970;51.340;3.240;2022-11-20T08:19:17;5.50;99.90
13798;DHT22;6970;51.340;3.240;2022-11-20T08:21:48;5.50;99.90
13798;DHT22;6970;51.340;3.240;2022-11-20T08:24:15;5.50;99.90
13798;DHT22;6970;51.340;3.240;2022-11-20T08:26:45;5.50;99.90
13798;DHT22;6970;51.340;3.240;2022-11-20T08:29:14;5.50;99.90
13798;DHT22;6970;51.340;3.240;2022-11-20T08:31:43;5.50;99.90
13798;DHT22;6970;51.340;3.240;2022-11-20T08:34:13;5.50;99.90
13798;DHT22;6970;51.340;3.240;2022-11-20T08:36:47;5.60;99.90
13798;DHT22;6970;51.340;3.240;2022-11-20T08:39:14;5.60;99.90
13798;DHT22;6970;51.340;3.240;2022-11-20T08:41:41;5.60;99.90
13798;DHT22;6970;51.340;3.240;2022-11-20T08:44:08;5.60;99.90
13798;DHT22;6970;51.340;3.240;2022-11-20T08:46:41;5.70;99.90
13798;DHT22;6970;51.340;3.240;2022-11-20T08:49:10;5.70;99.90
13798;DHT22;6970;51.340;3.240;2022-11-20T08:51:41;5.70;99.90
13798;DHT22;6970;51.340;3.240;2022-11-20T08:54:11;5.80;99.90
13798;DHT22;6970;51.340;3.240;2022-11-20T08:56:41;5.80;99.90
13798;DHT22;6970;51.340;3.240;2022-11-20T08:59:11;5.80;99.90
13798;DHT22;6970;51.340;3.240;2022-11-20T09:02:00;5.80;99.90
13798;DHT22;6970;51.340;3.240;2022-11-20T09:04:27;5.90;99.90
13798;DHT22;6970;51.340;3.240;2022-11-20T09:06:55;6.00;99.90
13798;DHT22;6970;51.340;3.240;2022-11-20T09:09:25;6.00;99.90
13798;DHT22;6970;51.340;3.240;2022-11-20T09:11:52;6.00;99.90
13798;DHT22;6970;51.340;3.240;2022-11-20T09:14:22;6.10;99.90
13798;DHT22;6970;51.340;3.240;2022-11-20T09:16:53;6.10;99.90
13798;DHT22;6970;51.340;3.240;2022-11-20T09:19:23;6.10;99.90
13798;DHT22;6970;51.340;3.240;2022-11-20T09:22:07;6.20;99.90
13798;DHT22;6970;51.340;3.240;2022-11-20T09:24:35;6.20;99.90
13798;DHT22;6970;51.340;3.240;2022-11-20T09:27:04;6.30;99.90
13798;DHT22;6970;51.340;3.240;2022-11-20T09:29:43;6.30;99.90
13798;DHT22;6970;51.340;3.240;2022-11-20T09:32:10;6.40;99.90
13798;DHT22;6970;51.340;3.240;2022-11-20T09:34:38;6.50;99.90
13798;DHT22;6970;51.340;3.240;2022-11-20T09:37:07;6.50;99.90
13798;DHT22;6970;51.340;3.240;2022-11-20T09:39:35;6.60;99.90
13798;DHT22;6970;51.340;3.240;2022-11-20T09:54:14;6.70;99.90
13798;DHT22;6970;51.340;3.240;2022-11-20T09:56:45;6.70;99.90
13798;DHT22;6970;51.340;3.240;2022-11-20T10:01:49;6.90;99.90
13798;DHT22;6970;51.340;3.240;2022-11-20T10:04:20;6.90;99.90
13798;DHT22;6970;51.340;3.240;2022-11-20T10:07:08;7.00;99.90
13798;DHT22;6970;51.340;3.240;2022-11-20T10:09:58;7.20;99.90
13798;DHT22;6970;51.340;3.240;2022-11-20T10:12:39;7.30;99.90
13798;DHT22;6970;51.340;3.240;2022-11-20T10:29:38;7.70;99.90
13798;DHT22;6970;51.340;3.240;2022-11-20T10:32:19;7.70;99.90
13798;DHT22;6970;51.340;3.240;2022-11-20T10:34:54;7.80;99.90
13798;DHT22;6970;51.340;3.240;2022-11-20T10:37:29;7.80;99.90
13798;DHT22;6970;51.340;3.240;2022-11-20T10:42:56;8.00;99.90
13798;DHT22;6970;51.340;3.240;2022-11-20T10:45:43;8.00;99.90
13798;DHT22;6970;51.340;3.240;2022-11-20T10:48:16;8.20;99.90
13798;DHT22;6970;51.340;3.240;2022-11-20T10:56:25;8.70;99.90
13798;DHT22;6970;51.340;3.240;2022-11-20T11:01:42;8.90;99.90
13798;DHT22;6970;51.340;3.240;2022-11-20T11:06:52;9.00;99.90
13798;DHT22;6970;51.340;3.240;2022-11-20T11:09:32;9.00;99.90
13798;DHT22;6970;51.340;3.240;2022-11-20T11:11:59;9.00;99.90
13798;DHT22;6970;51.340;3.240;2022-11-20T11:14:45;8.90;99.90
13798;DHT22;6970;51.340;3.240;2022-11-20T11:20:18;8.90;99.90
13798;DHT22;6970;51.340;3.240;2022-11-20T11:22:51;8.90;99.90
13798;DHT22;6970;51.340;3.240;2022-11-20T11:25:35;8.80;99.90
13798;DHT22;6970;51.340;3.240;2022-11-20T11:28:20;8.80;99.90
13798;DHT22;6970;51.340;3.240;2022-11-20T11:30:48;8.70;99.90
13798;DHT22;6970;51.340;3.240;2022-11-20T11:33:33;8.70;99.90
13798;DHT22;6970;51.340;3.240;2022-11-20T11:36:02;8.70;99.90
13798;DHT22;6970;51.340;3.240;2022-11-20T11:38:41;8.70;99.90
13798;DHT22;6970;51.340;3.240;2022-11-20T11:41:15;8.70;99.90
13798;DHT22;6970;51.340;3.240;2022-11-20T11:44:01;8.70;99.90
13798;DHT22;6970;51.340;3.240;2022-11-20T11:46:54;8.70;99.90
13798;DHT22;6970;51.340;3.240;2022-11-20T11:49:25;8.70;99.90
13798;DHT22;6970;51.340;3.240;2022-11-20T11:52:18;8.70;99.90
13798;DHT22;6970;51.340;3.240;2022-11-20T11:55:04;8.70;99.90
13798;DHT22;6970;51.340;3.240;2022-11-20T12:10:57;8.50;99.90
13798;DHT22;6970;51.340;3.240;2022-11-20T12:16:13;8.40;99.90
13798;DHT22;6970;51.340;3.240;2022-11-20T12:18:44;8.40;99.90
13798;DHT22;6970;51.340;3.240;2022-11-20T12:21:34;8.40;99.90
13798;DHT22;6970;51.340;3.240;2022-11-20T12:33:00;8.30;99.90
13798;DHT22;6970;51.340;3.240;2022-11-20T12:35:53;8.30;99.90
13798;DHT22;6970;51.340;3.240;2022-11-20T13:01:58;8.40;99.90
13798;DHT22;6970;51.340;3.240;2022-11-20T13:07:07;8.50;99.90
13798;DHT22;6970;51.340;3.240;2022-11-20T13:09:46;8.60;99.90
13798;DHT22;6970;51.340;3.240;2022-11-20T13:15:02;8.70;99.90
13798;DHT22;6970;51.340;3.240;2022-11-20T13:17:46;8.70;99.90
13798;DHT22;6970;51.340;3.240;2022-11-20T13:20:16;8.70;99.90
13798;DHT22;6970;51.340;3.240;2022-11-20T13:22:53;8.80;99.90
13798;DHT22;6970;51.340;3.240;2022-11-20T13:25:32;8.80;99.90
13798;DHT22;6970;51.340;3.240;2022-11-20T13:30:49;8.80;99.90
13798;DHT22;6970;51.340;3.240;2022-11-20T13:33:37;8.80;99.90
13798;DHT22;6970;51.340;3.240;2022-11-20T13:36:26;8.80;99.90
13798;DHT22;6970;51.340;3.240;2022-11-20T13:38:56;8.80;99.90
13798;DHT22;6970;51.340;3.240;2022-11-20T13:41:41;8.80;99.90
13798;DHT22;6970;51.340;3.240;2022-11-20T13:44:14;8.80;99.90
13798;DHT22;6970;51.340;3.240;2022-11-20T13:46:46;8.80;99.90
13798;DHT22;6970;51.340;3.240;2022-11-20T13:49:38;8.80;99.90
13798;DHT22;6970;51.340;3.240;2022-11-20T13:52:30;8.80;99.90
13798;DHT22;6970;51.340;3.240;2022-11-20T13:55:38;8.90;99.90
13798;DHT22;6970;51.340;3.240;2022-11-20T14:01:20;8.90;99.90
13798;DHT22;6970;51.340;3.240;2022-11-20T14:03:49;9.00;99.90
13798;DHT22;6970;51.340;3.240;2022-11-20T14:06:42;9.10;99.90
13798;DHT22;6970;51.340;3.240;2022-11-20T14:09:25;9.10;99.90
13798;DHT22;6970;51.340;3.240;2022-11-20T14:11:52;9.20;99.90
13798;DHT22;6970;51.340;3.240;2022-11-20T14:14:21;9.40;99.90
13798;DHT22;6970;51.340;3.240;2022-11-20T14:16:52;9.80;99.90
13798;DHT22;6970;51.340;3.240;2022-11-20T14:19:24;10.10;99.90
13798;DHT22;6970;51.340;3.240;2022-11-20T14:21:54;10.20;99.90
13798;DHT22;6970;51.340;3.240;2022-11-20T14:24:24;10.30;99.90
13798;DHT22;6970;51.340;3.240;2022-11-20T14:26:52;10.50;99.90
13798;DHT22;6970;51.340;3.240;2022-11-20T14:29:28;10.60;99.90
13798;DHT22;6970;51.340;3.240;2022-11-20T14:31:58;10.60;99.90
13798;DHT22;6970;51.340;3.240;2022-11-20T14:34:30;10.50;99.90
13798;DHT22;6970;51.340;3.240;2022-11-20T14:37:01;10.60;99.90
13798;DHT22;6970;51.340;3.240;2022-11-20T14:39:37;10.60;99.90
13798;DHT22;6970;51.340;3.240;2022-11-20T14:42:31;10.60;99.90
13798;DHT22;6970;51.340;3.240;2022-11-20T14:45:02;10.70;99.90
13798;DHT22;6970;51.340;3.240;2022-11-20T14:47:31;10.60;99.90
13798;DHT22;6970;51.340;3.240;2022-11-20T14:50:01;10.60;99.90
13798;DHT22;6970;51.340;3.240;2022-11-20T14:52:35;10.60;99.90
13798;DHT22;6970;51.340;3.240;2022-11-20T14:55:02;10.60;99.90
13798;DHT22;6970;51.340;3.240;2022-11-20T14:57:36;10.60;99.90
13798;DHT22;6970;51.340;3.240;2022-11-20T15:00:20;10.60;99.90
13798;DHT22;6970;51.340;3.240;2022-11-20T15:02:50;10.60;99.90
13798;DHT22;6970;51.340;3.240;2022-11-20T15:05:19;10.60;99.90
13798;DHT22;6970;51.340;3.240;2022-11-20T15:08:04;10.60;99.90
13798;DHT22;6970;51.340;3.240;2022-11-20T15:10:34;10.60;99.90
13798;DHT22;6970;51.340;3.240;2022-11-20T15:13:36;10.50;99.90
13798;DHT22;6970;51.340;3.240;2022-11-20T15:16:20;10.50;99.90
13798;DHT22;6970;51.340;3.240;2022-11-20T15:18:47;10.50;99.90
13798;DHT22;6970;51.340;3.240;2022-11-20T15:21:20;10.50;99.90
13798;DHT22;6970;51.340;3.240;2022-11-20T15:23:48;10.50;99.90
13798;DHT22;6970;51.340;3.240;2022-11-20T15:26:27;10.50;99.90
13798;DHT22;6970;51.340;3.240;2022-11-20T15:28:57;10.50;99.90
13798;DHT22;6970;51.340;3.240;2022-11-20T15:31:28;10.50;99.90
13798;DHT22;6970;51.340;3.240;2022-11-20T15:33:55;10.50;99.90
13798;DHT22;6970;51.340;3.240;2022-11-20T15:36:24;10.50;99.90
13798;DHT22;6970;51.340;3.240;2022-11-20T15:38:51;10.40;99.90
13798;DHT22;6970;51.340;3.240;2022-11-20T15:41:20;10.40;99.90
13798;DHT22;6970;51.340;3.240;2022-11-20T15:43:48;10.40;99.90
13798;DHT22;6970;51.340;3.240;2022-11-20T15:46:25;10.40;99.90
13798;DHT22;6970;51.340;3.240;2022-11-20T15:49:02;10.40;99.90
13798;DHT22;6970;51.340;3.240;2022-11-20T15:51:31;10.40;99.90
13798;DHT22;6970;51.340;3.240;2022-11-20T15:54:10;10.40;99.90
13798;DHT22;6970;51.340;3.240;2022-11-20T15:56:37;10.40;99.90
13798;DHT22;6970;51.340;3.240;2022-11-20T15:59:05;10.40;99.90
13798;DHT22;6970;51.340;3.240;2022-11-20T16:01:35;10.40;99.90
13798;DHT22;6970;51.340;3.240;2022-11-20T16:04:05;10.30;99.90
13798;DHT22;6970;51.340;3.240;2022-11-20T16:06:35;10.30;99.90
13798;DHT22;6970;51.340;3.240;2022-11-20T16:09:05;10.30;99.90
13798;DHT22;6970;51.340;3.240;2022-11-20T16:11:35;10.30;99.90
13798;DHT22;6970;51.340;3.240;2022-11-20T16:14:05;10.30;99.90
13798;DHT22;6970;51.340;3.240;2022-11-20T16:17:02;10.30;99.90
13798;DHT22;6970;51.340;3.240;2022-11-20T16:19:32;10.30;99.90
13798;DHT22;6970;51.340;3.240;2022-11-20T16:22:00;10.30;99.90
13798;DHT22;6970;51.340;3.240;2022-11-20T16:24:32;10.30;99.90
13798;DHT22;6970;51.340;3.240;2022-11-20T16:27:02;10.30;99.90
13798;DHT22;6970;51.340;3.240;2022-11-20T16:29:32;10.30;99.90
13798;DHT22;6970;51.340;3.240;2022-11-20T16:32:02;10.30;99.90
13798;DHT22;6970;51.340;3.240;2022-11-20T16:34:29;10.30;99.90
13798;DHT22;6970;51.340;3.240;2022-11-20T16:36:58;10.30;99.90
13798;DHT22;6970;51.340;3.240;2022-11-20T16:39:26;10.30;99.90
13798;DHT22;6970;51.340;3.240;2022-11-20T16:41:56;10.30;99.90
13798;DHT22;6970;51.340;3.240;2022-11-20T16:44:29;10.30;99.90
13798;DHT22;6970;51.340;3.240;2022-11-20T16:46:58;10.30;99.90
13798;DHT22;6970;51.340;3.240;2022-11-20T16:49:28;10.30;99.90
13798;DHT22;6970;51.340;3.240;2022-11-20T16:51:58;10.30;99.90
13798;DHT22;6970;51.340;3.240;2022-11-20T16:54:26;10.20;99.90
13798;DHT22;6970;51.340;3.240;2022-11-20T16:56:55;10.30;99.90
13798;DHT22;6970;51.340;3.240;2022-11-20T16:59:22;10.30;99.90
13798;DHT22;6970;51.340;3.240;2022-11-20T17:01:49;10.30;99.90
13798;DHT22;6970;51.340;3.240;2022-11-20T17:04:16;10.30;99.90
13798;DHT22;6970;51.340;3.240;2022-11-20T17:06:44;10.30;99.90
13798;DHT22;6970;51.340;3.240;2022-11-20T17:09:12;10.30;99.90
13798;DHT22;6970;51.340;3.240;2022-11-20T17:11:42;10.30;99.90
13798;DHT22;6970;51.340;3.240;2022-11-20T17:14:11;10.30;99.90
13798;DHT22;6970;51.340;3.240;2022-11-20T17:16:40;10.30;99.90
13798;DHT22;6970;51.340;3.240;2022-11-20T17:19:12;10.30;99.90
13798;DHT22;6970;51.340;3.240;2022-11-20T17:21:43;10.30;99.90
13798;DHT22;6970;51.340;3.240;2022-11-20T17:24:11;10.20;99.90
13798;DHT22;6970;51.340;3.240;2022-11-20T17:26:42;10.30;99.90
13798;DHT22;6970;51.340;3.240;2022-11-20T17:29:15;10.30;99.90
13798;DHT22;6970;51.340;3.240;2022-11-20T17:31:43;10.30;99.90
13798;DHT22;6970;51.340;3.240;2022-11-20T17:34:12;10.30;99.90
13798;DHT22;6970;51.340;3.240;2022-11-20T17:36:43;10.30;99.90
13798;DHT22;6970;51.340;3.240;2022-11-20T17:39:16;10.30;99.90
13798;DHT22;6970;51.340;3.240;2022-11-20T17:41:46;10.30;99.90
13798;DHT22;6970;51.340;3.240;2022-11-20T17:44:39;10.20;99.90
13798;DHT22;6970;51.340;3.240;2022-11-20T17:47:11;10.20;99.90
13798;DHT22;6970;51.340;3.240;2022-11-20T17:49:41;10.20;99.90
13798;DHT22;6970;51.340;3.240;2022-11-20T17:52:11;10.20;99.90
13798;DHT22;6970;51.340;3.240;2022-11-20T17:54:41;10.20;99.90
13798;DHT22;6970;51.340;3.240;2022-11-20T17:57:11;10.20;99.90
13798;DHT22;6970;51.340;3.240;2022-11-20T18:00:03;10.20;99.90
13798;DHT22;6970;51.340;3.240;2022-11-20T18:02:33;10.30;99.90
13798;DHT22;6970;51.340;3.240;2022-11-20T18:05:03;10.30;99.90
13798;DHT22;6970;51.340;3.240;2022-11-20T18:07:39;10.30;99.90
13798;DHT22;6970;51.340;3.240;2022-11-20T18:10:09;10.30;99.90
13798;DHT22;6970;51.340;3.240;2022-11-20T18:12:37;10.30;99.90
13798;DHT22;6970;51.340;3.240;2022-11-20T18:15:04;10.30;99.90
13798;DHT22;6970;51.340;3.240;2022-11-20T18:17:31;10.30;99.90